createdAt,value
2019-03-24T00:01:46.715Z,10.25
2019-03-24T00:04:16.877Z,10.27
2019-03-24T00:06:46.890Z,10.20
2019-03-24T00:09:16.806Z,10.18
2019-03-24T00:11:47.004Z,10.19
2019-03-24T00:14:16.965Z,10.14
2019-03-24T00:16:47.259Z,9.99
2019-03-24T00:19:17.444Z,10.07
2019-03-24T00:21:47.424Z,10.08
2019-03-24T00:24:17.533Z,10.01
2019-03-24T00:26:47.932Z,10.06
2019-03-24T00:29:18.101Z,9.99
2019-03-24T00:31:48.329Z,10.02
2019-03-24T00:34:18.376Z,9.98
2019-03-24T00:36:48.304Z,9.92
2019-03-24T00:39:18.370Z,9.77
2019-03-24T00:41:48.521Z,9.86
2019-03-24T00:44:18.462Z,9.78
2019-03-24T00:46:48.507Z,9.77
2019-03-24T00:49:18.521Z,9.69
2019-03-24T00:51:48.517Z,9.59
2019-03-24T00:54:18.627Z,9.66
2019-03-24T00:56:48.582Z,9.65
2019-03-24T00:59:18.887Z,9.57
2019-03-24T01:01:48.839Z,9.57
2019-03-24T01:05:12.743Z,9.57
2019-03-24T01:07:43.215Z,9.51
2019-03-24T01:10:14.162Z,9.46
2019-03-24T01:12:44.453Z,9.45
2019-03-24T01:15:14.908Z,9.34
2019-03-24T01:17:45.383Z,9.34
2019-03-24T01:20:17.066Z,9.37
2019-03-24T01:22:47.194Z,9.49
2019-03-24T01:25:17.326Z,9.36
2019-03-24T01:27:47.316Z,9.25
2019-03-24T01:30:17.651Z,9.30
2019-03-24T01:32:47.682Z,9.19
2019-03-24T01:35:17.603Z,9.19
2019-03-24T01:37:47.745Z,9.16
2019-03-24T01:40:17.919Z,9.06
2019-03-24T01:42:48.151Z,9.06
2019-03-24T01:45:18.114Z,9.08
2019-03-24T01:47:48.296Z,9.04
2019-03-24T01:50:18.543Z,8.99
2019-03-24T01:52:48.689Z,8.97
2019-03-24T01:55:18.765Z,8.88
2019-03-24T01:57:48.894Z,8.88
2019-03-24T02:00:19.183Z,8.83
2019-03-24T02:02:49.123Z,8.83
2019-03-24T02:05:19.376Z,8.91
2019-03-24T02:07:49.341Z,8.91
2019-03-24T02:10:19.820Z,8.74
2019-03-24T02:12:49.800Z,8.78
2019-03-24T02:15:19.921Z,8.78
2019-03-24T02:17:49.936Z,8.76
2019-03-24T02:20:19.951Z,8.76
2019-03-24T02:22:49.975Z,8.68
2019-03-24T02:25:20.160Z,8.56
2019-03-24T02:27:50.196Z,8.69
2019-03-24T02:30:20.431Z,8.69
2019-03-24T02:32:50.718Z,8.44
2019-03-24T02:35:20.779Z,8.44
2019-03-24T02:37:50.787Z,8.63
2019-03-24T02:40:20.937Z,8.57
2019-03-24T02:42:50.929Z,8.56
2019-03-24T02:45:21.057Z,8.56
2019-03-24T02:47:51.071Z,8.56
2019-03-24T02:50:21.074Z,8.54
2019-03-24T02:52:51.422Z,8.54
2019-03-24T02:55:21.632Z,8.40
2019-03-24T02:57:51.765Z,8.47
2019-03-24T03:00:21.996Z,8.46
2019-03-24T03:02:52.310Z,8.43
2019-03-24T03:05:22.228Z,8.43
2019-03-24T03:07:52.257Z,8.42
2019-03-24T03:10:22.251Z,8.42
2019-03-24T03:12:52.376Z,8.30
2019-03-24T03:15:22.299Z,8.30
2019-03-24T03:17:52.328Z,8.29
2019-03-24T03:20:22.348Z,8.29
2019-03-24T03:22:52.265Z,8.17
2019-03-24T03:25:22.283Z,8.23
2019-03-24T03:27:52.271Z,8.23
2019-03-24T03:30:22.242Z,8.15
2019-03-24T03:32:52.236Z,8.15
2019-03-24T03:35:22.346Z,8.00
2019-03-24T03:37:52.325Z,8.00
2019-03-24T03:40:22.347Z,8.06
2019-03-24T03:42:52.295Z,8.01
2019-03-24T03:45:29.393Z,8.05
2019-03-24T03:47:59.386Z,8.05
2019-03-24T03:50:29.335Z,7.97
2019-03-24T03:52:59.376Z,8.04
2019-03-24T03:55:29.321Z,7.98
2019-03-24T03:57:59.251Z,7.87
2019-03-24T04:00:36.487Z,7.87
2019-03-24T04:03:07.667Z,7.88
2019-03-24T04:05:37.653Z,7.85
2019-03-24T04:08:07.924Z,7.84
2019-03-24T04:10:37.865Z,7.80
2019-03-24T04:13:07.867Z,7.80
2019-03-24T04:15:37.832Z,7.73
2019-03-24T04:18:07.961Z,7.72
2019-03-24T04:20:37.886Z,7.73
2019-03-24T04:23:07.974Z,7.72
2019-03-24T04:25:37.994Z,7.72
2019-03-24T04:28:07.951Z,7.70
2019-03-24T04:30:37.889Z,7.83
2019-03-24T04:33:08.045Z,7.83
2019-03-24T04:35:38.106Z,7.74
2019-03-24T04:38:08.168Z,7.64
2019-03-24T04:40:38.123Z,7.57
2019-03-24T04:43:08.082Z,7.49
2019-03-24T04:45:38.097Z,7.45
2019-03-24T04:48:08.155Z,7.40
2019-03-24T04:50:38.193Z,7.39
2019-03-24T04:53:08.340Z,7.41
2019-03-24T04:55:38.478Z,7.43
2019-03-24T04:58:08.469Z,7.38
2019-03-24T05:00:40.096Z,7.41
2019-03-24T05:03:10.109Z,7.43
2019-03-24T05:05:40.827Z,7.41
2019-03-24T05:08:13.495Z,7.37
2019-03-24T05:10:43.465Z,7.34
2019-03-24T05:13:13.609Z,7.39
2019-03-24T05:15:43.512Z,7.34
2019-03-24T05:18:13.566Z,7.34
2019-03-24T05:20:43.513Z,7.37
2019-03-24T05:23:13.421Z,7.25
2019-03-24T05:25:43.716Z,7.23
2019-03-24T05:28:13.929Z,7.20
2019-03-24T05:30:43.839Z,7.23
2019-03-24T05:33:13.875Z,7.30
2019-03-24T05:35:44.067Z,7.26
2019-03-24T05:38:14.176Z,7.30
2019-03-24T05:40:44.410Z,7.35
2019-03-24T05:43:14.456Z,7.41
2019-03-24T05:45:44.403Z,7.30
2019-03-24T05:48:14.747Z,7.30
2019-03-24T05:50:44.768Z,7.34
2019-03-24T05:53:14.786Z,7.44
2019-03-24T05:55:44.823Z,7.43
2019-03-24T05:58:14.754Z,7.35
2019-03-24T06:00:44.754Z,7.44
2019-03-24T06:03:14.815Z,7.38
2019-03-24T06:05:44.743Z,7.47
2019-03-24T06:08:14.784Z,7.46
2019-03-24T06:10:44.828Z,7.48
2019-03-24T06:13:15.034Z,7.52
2019-03-24T06:15:44.973Z,7.55
2019-03-24T06:18:14.965Z,7.58
2019-03-24T06:20:44.897Z,7.62
2019-03-24T06:23:14.999Z,7.65
2019-03-24T06:25:45.043Z,7.62
2019-03-24T06:28:14.992Z,7.61
2019-03-24T06:30:45.292Z,7.45
2019-03-24T06:33:15.311Z,7.27
2019-03-24T06:35:45.394Z,7.37
2019-03-24T06:38:15.435Z,7.48
2019-03-24T06:40:45.460Z,7.40
2019-03-24T06:43:15.557Z,7.36
2019-03-24T06:45:45.529Z,7.39
2019-03-24T06:48:15.470Z,7.33
2019-03-24T06:50:45.433Z,7.42
2019-03-24T06:53:15.422Z,7.61
2019-03-24T06:55:45.382Z,7.81
2019-03-24T06:58:15.913Z,7.81
2019-03-24T07:00:45.830Z,7.72
2019-03-24T07:03:15.926Z,7.84
2019-03-24T07:05:46.029Z,7.93
2019-03-24T07:08:15.955Z,8.12
2019-03-24T07:10:45.871Z,8.12
2019-03-24T07:13:16.022Z,8.14
2019-03-24T07:15:46.195Z,8.30
2019-03-24T07:18:16.218Z,8.31
2019-03-24T07:20:46.266Z,8.31
2019-03-24T07:23:16.454Z,8.28
2019-03-24T07:25:46.421Z,8.34
2019-03-24T07:28:16.309Z,8.34
2019-03-24T07:30:46.343Z,8.55
2019-03-24T07:33:16.351Z,8.71
2019-03-24T07:35:46.468Z,8.71
2019-03-24T07:38:16.495Z,8.71
2019-03-24T07:40:46.506Z,8.71
2019-03-24T07:43:16.718Z,8.76
2019-03-24T07:45:46.624Z,8.76
2019-03-24T07:48:19.404Z,8.81
2019-03-24T07:50:48.605Z,8.94
2019-03-24T07:53:18.603Z,8.95
2019-03-24T07:55:48.660Z,8.95
2019-03-24T07:58:18.649Z,9.17
2019-03-24T08:00:48.650Z,9.49
2019-03-24T08:03:18.689Z,9.49
2019-03-24T08:05:48.718Z,9.32
2019-03-24T08:08:18.635Z,9.46
2019-03-24T08:10:48.529Z,9.66
2019-03-24T08:13:18.566Z,9.80
2019-03-24T08:15:48.486Z,10.04
2019-03-24T08:18:29.278Z,10.16
2019-03-24T08:20:50.338Z,10.23
2019-03-24T08:23:20.293Z,10.28
2019-03-24T08:25:50.475Z,10.43
2019-03-24T08:28:20.402Z,10.61
2019-03-24T08:30:50.358Z,10.77
2019-03-24T08:33:20.253Z,10.68
2019-03-24T08:35:50.284Z,10.72
2019-03-24T08:38:20.208Z,10.68
2019-03-24T08:40:50.299Z,10.87
2019-03-24T08:43:20.297Z,11.28
2019-03-24T08:45:50.213Z,11.17
2019-03-24T08:48:20.166Z,11.24
2019-03-24T08:50:50.083Z,11.34
2019-03-24T08:53:20.288Z,11.42
2019-03-24T08:55:50.293Z,11.52
2019-03-24T08:58:20.223Z,11.60
2019-03-24T09:00:50.233Z,11.70
2019-03-24T09:03:20.336Z,11.69
2019-03-24T09:05:50.265Z,11.65
2019-03-24T09:08:20.318Z,11.76
2019-03-24T09:10:50.316Z,11.80
2019-03-24T09:13:20.317Z,12.02
2019-03-24T09:15:50.328Z,12.17
2019-03-24T09:18:20.241Z,12.07
2019-03-24T09:20:50.394Z,12.17
2019-03-24T09:23:20.308Z,12.11
2019-03-24T09:25:50.223Z,12.27
2019-03-24T09:28:21.230Z,12.28
2019-03-24T09:30:51.145Z,12.38
2019-03-24T09:33:21.080Z,12.51
2019-03-24T09:35:51.283Z,12.64
2019-03-24T09:38:21.239Z,12.77
2019-03-24T09:40:51.186Z,12.63
2019-03-24T09:43:21.331Z,12.96
2019-03-24T09:45:51.265Z,13.00
2019-03-24T09:48:21.294Z,13.19
2019-03-24T09:50:51.415Z,13.26
2019-03-24T09:53:21.554Z,13.20
2019-03-24T09:55:51.670Z,13.23
2019-03-24T09:58:21.743Z,13.30
2019-03-24T10:00:51.696Z,13.57
2019-03-24T10:03:22.084Z,13.44
2019-03-24T10:05:52.133Z,13.44
2019-03-24T10:08:22.250Z,13.29
2019-03-24T10:10:52.272Z,13.45
2019-03-24T10:13:22.296Z,13.34
2019-03-24T10:15:52.250Z,13.66
2019-03-24T10:18:22.250Z,13.81
2019-03-24T10:20:52.219Z,13.81
2019-03-24T10:23:22.351Z,13.82
2019-03-24T10:25:52.370Z,13.67
2019-03-24T10:28:22.322Z,13.94
2019-03-24T10:30:52.230Z,14.00
2019-03-24T10:33:22.203Z,13.91
2019-03-24T10:35:52.173Z,14.28
2019-03-24T10:38:22.345Z,14.20
2019-03-24T10:40:52.288Z,14.27
2019-03-24T10:43:22.204Z,14.46
2019-03-24T10:45:52.324Z,14.74
2019-03-24T10:48:33.122Z,14.86
2019-03-24T10:50:54.410Z,14.64
2019-03-24T10:53:24.407Z,14.69
2019-03-24T10:55:54.352Z,14.59
2019-03-24T10:58:24.296Z,14.73
2019-03-24T11:00:54.440Z,14.71
2019-03-24T11:03:24.402Z,14.69
2019-03-24T11:05:54.322Z,14.22
2019-03-24T11:08:24.255Z,14.77
2019-03-24T11:10:54.312Z,14.85
2019-03-24T11:13:24.290Z,15.05
2019-03-24T11:15:54.195Z,15.20
2019-03-24T11:18:24.159Z,15.31
2019-03-24T11:20:54.102Z,15.38
2019-03-24T11:23:24.043Z,15.47
2019-03-24T11:25:54.035Z,15.21
2019-03-24T11:28:24.053Z,14.97
2019-03-24T11:30:54.013Z,15.37
2019-03-24T11:33:23.930Z,15.42
2019-03-24T11:35:53.902Z,15.45
2019-03-24T11:38:23.830Z,15.83
2019-03-24T11:40:53.757Z,16.20
2019-03-24T11:43:23.965Z,15.80
2019-03-24T11:45:54.046Z,15.77
2019-03-24T11:48:24.207Z,15.92
2019-03-24T11:50:54.383Z,15.99
2019-03-24T11:53:24.332Z,16.12
2019-03-24T11:55:54.357Z,16.17
2019-03-24T11:58:24.455Z,16.18
2019-03-24T12:00:54.410Z,16.18
2019-03-24T12:03:25.501Z,16.41
2019-03-24T12:05:55.562Z,16.23
2019-03-24T12:08:25.873Z,16.52
2019-03-24T12:10:55.982Z,16.75
2019-03-24T12:13:26.016Z,16.78
2019-03-24T12:15:56.023Z,17.28
2019-03-24T12:18:26.168Z,18.02
2019-03-24T12:20:56.185Z,17.87
2019-03-24T12:23:26.156Z,18.09
2019-03-24T12:25:56.084Z,18.62
2019-03-24T12:28:26.123Z,18.81
2019-03-24T12:30:56.127Z,18.88
2019-03-24T12:33:26.130Z,19.70
2019-03-24T12:35:56.282Z,18.80
2019-03-24T12:38:26.887Z,19.80
2019-03-24T12:40:58.594Z,19.81
2019-03-24T12:43:28.691Z,20.15
2019-03-24T12:45:59.079Z,20.20
2019-03-24T12:48:29.226Z,20.16
2019-03-24T12:50:59.306Z,19.81
2019-03-24T12:53:29.379Z,19.38
2019-03-24T12:55:59.293Z,20.17
2019-03-24T12:58:29.213Z,20.57
2019-03-24T13:00:59.155Z,20.60
2019-03-24T13:03:29.121Z,21.14
2019-03-24T13:05:59.061Z,22.01
2019-03-24T13:08:28.978Z,21.69
2019-03-24T13:10:59.135Z,21.50
2019-03-24T13:13:29.082Z,22.67
2019-03-24T13:15:59.008Z,22.75
2019-03-24T13:18:29.027Z,22.03
2019-03-24T13:20:59.143Z,21.84
2019-03-24T13:23:29.155Z,21.81
2019-03-24T13:25:59.174Z,21.03
2019-03-24T13:28:29.153Z,21.28
2019-03-24T13:30:59.195Z,20.95
2019-03-24T13:33:29.124Z,19.67
2019-03-24T13:36:10.037Z,19.04
2019-03-24T13:38:41.075Z,17.58
2019-03-24T13:41:12.225Z,17.61
2019-03-24T13:43:42.184Z,16.45
2019-03-24T13:46:12.323Z,16.22
2019-03-24T13:48:42.870Z,16.42
2019-03-24T13:51:14.362Z,15.91
2019-03-24T13:53:44.323Z,16.06
2019-03-24T13:56:14.266Z,16.38
2019-03-24T13:58:44.444Z,17.59
2019-03-24T14:01:14.908Z,17.67
2019-03-24T14:03:44.899Z,19.11
2019-03-24T14:06:14.858Z,19.21
2019-03-24T14:08:44.825Z,19.87
2019-03-24T14:11:14.829Z,20.35
2019-03-24T14:13:44.876Z,19.53
2019-03-24T14:16:14.891Z,19.52
2019-03-24T14:18:44.911Z,18.68
2019-03-24T14:21:15.020Z,18.34
2019-03-24T14:23:44.973Z,18.50
2019-03-24T14:26:14.948Z,18.05
2019-03-24T14:28:44.969Z,17.03
2019-03-24T14:31:14.919Z,16.82
2019-03-24T14:33:44.916Z,16.69
2019-03-24T14:36:14.877Z,16.87
2019-03-24T14:38:44.939Z,16.71
2019-03-24T14:41:15.061Z,16.39
2019-03-24T14:43:44.980Z,16.02
2019-03-24T14:46:14.976Z,15.98
2019-03-24T14:48:45.023Z,15.77
2019-03-24T14:51:15.105Z,15.89
2019-03-24T14:53:45.175Z,15.93
2019-03-24T14:56:15.181Z,16.11
2019-03-24T14:58:45.322Z,16.07
2019-03-24T15:01:15.307Z,15.84
2019-03-24T15:03:45.329Z,15.90
2019-03-24T15:06:15.285Z,15.54
2019-03-24T15:08:45.263Z,15.28
2019-03-24T15:11:15.206Z,15.12
2019-03-24T15:13:45.369Z,15.06
2019-03-24T15:16:15.695Z,15.21
2019-03-24T15:18:45.662Z,14.81
2019-03-24T15:21:15.611Z,14.59
2019-03-24T15:23:45.686Z,14.52
2019-03-24T15:26:15.877Z,14.51
2019-03-24T15:28:45.906Z,14.47
2019-03-24T15:31:15.823Z,14.34
2019-03-24T15:33:45.980Z,14.09
2019-03-24T15:36:15.982Z,14.07
2019-03-24T15:38:46.083Z,14.01
2019-03-24T15:41:18.320Z,13.95
2019-03-24T15:43:47.874Z,14.06
2019-03-24T15:46:17.973Z,13.92
2019-03-24T15:48:50.117Z,13.92
2019-03-24T15:51:19.757Z,14.01
2019-03-24T15:53:49.706Z,13.94
2019-03-24T15:56:19.699Z,13.82
2019-03-24T15:58:49.745Z,13.78
2019-03-24T16:01:19.763Z,13.63
2019-03-24T16:03:50.041Z,13.55
2019-03-24T16:06:20.285Z,13.68
2019-03-24T16:08:50.379Z,13.60
2019-03-24T16:11:20.338Z,13.70
2019-03-24T16:13:50.514Z,13.62
2019-03-24T16:16:22.873Z,13.47
2019-03-24T16:18:52.539Z,13.42
2019-03-24T16:21:27.778Z,13.34
2019-03-24T16:23:54.177Z,13.36
2019-03-24T16:26:24.139Z,13.20
2019-03-24T16:28:54.196Z,13.21
2019-03-24T16:31:24.237Z,13.16
2019-03-24T16:33:54.493Z,13.20
2019-03-24T16:36:24.646Z,13.12
2019-03-24T16:39:03.142Z,13.19
2019-03-24T16:41:26.303Z,13.06
2019-03-24T16:43:56.396Z,12.85
2019-03-24T16:46:26.391Z,12.72
2019-03-24T16:48:56.324Z,12.87
2019-03-24T16:51:26.263Z,12.80
2019-03-24T16:53:56.245Z,12.74
2019-03-24T16:56:26.337Z,12.72
2019-03-24T16:58:56.562Z,12.70
2019-03-24T17:01:26.555Z,12.63
2019-03-24T17:03:56.826Z,12.51
2019-03-24T17:06:26.766Z,12.43
2019-03-24T17:08:56.794Z,12.64
2019-03-24T17:11:26.773Z,12.60
2019-03-24T17:13:56.905Z,12.49
2019-03-24T17:16:26.896Z,12.37
2019-03-24T17:18:56.856Z,12.43
2019-03-24T17:21:26.835Z,12.41
2019-03-24T17:23:56.857Z,12.33
2019-03-24T17:26:26.817Z,12.17
2019-03-24T17:28:57.786Z,12.15
2019-03-24T17:31:27.972Z,12.06
2019-03-24T17:33:58.227Z,12.01
2019-03-24T17:36:29.791Z,12.08
2019-03-24T17:39:00.031Z,11.99
2019-03-24T17:41:29.949Z,11.98
2019-03-24T17:44:03.434Z,12.01
2019-03-24T17:46:31.918Z,11.85
2019-03-24T17:49:03.813Z,11.82
2019-03-24T17:51:34.002Z,11.85
2019-03-24T17:54:04.071Z,11.84
2019-03-24T17:56:34.089Z,11.76
2019-03-24T17:59:04.060Z,11.81
2019-03-24T18:01:35.499Z,11.86
2019-03-24T18:04:05.519Z,11.78
2019-03-24T18:06:35.444Z,11.92
2019-03-24T18:09:08.182Z,11.83
2019-03-24T18:11:38.194Z,11.70
2019-03-24T18:14:08.407Z,11.68
2019-03-24T18:16:38.324Z,11.60
2019-03-24T18:19:08.282Z,11.79
2019-03-24T18:21:38.444Z,11.70
2019-03-24T18:24:08.565Z,11.80
2019-03-24T18:26:38.602Z,11.74
2019-03-24T18:29:08.678Z,11.74
2019-03-24T18:31:38.735Z,11.85
2019-03-24T18:34:08.655Z,11.77
2019-03-24T18:36:38.670Z,11.80
2019-03-24T18:39:10.250Z,11.86
2019-03-24T18:41:40.325Z,11.71
2019-03-24T18:44:10.358Z,11.73
2019-03-24T18:46:40.401Z,11.66
2019-03-24T18:49:10.590Z,11.68
2019-03-24T18:51:40.654Z,11.69
2019-03-24T18:54:10.619Z,11.75
2019-03-24T18:56:40.555Z,11.63
2019-03-24T18:59:10.528Z,11.64
2019-03-24T19:01:40.487Z,11.63
2019-03-24T19:04:10.411Z,11.73
2019-03-24T19:06:40.341Z,11.72
2019-03-24T19:09:11.004Z,11.74
2019-03-24T19:11:41.029Z,11.75
2019-03-24T19:14:11.183Z,11.75
2019-03-24T19:16:41.187Z,11.70
2019-03-24T19:19:11.217Z,11.69
2019-03-24T19:21:41.136Z,11.69
2019-03-24T19:24:11.147Z,11.52
2019-03-24T19:26:41.069Z,11.46
2019-03-24T19:29:11.283Z,11.41
2019-03-24T19:31:41.410Z,11.50
2019-03-24T19:34:11.399Z,11.36
2019-03-24T19:36:42.557Z,11.29
2019-03-24T19:39:12.567Z,11.35
2019-03-24T19:41:42.614Z,11.33
2019-03-24T19:44:12.585Z,11.43
2019-03-24T19:46:42.753Z,11.32
2019-03-24T19:49:13.226Z,11.30
2019-03-24T19:51:43.456Z,11.26
2019-03-24T19:54:13.516Z,11.27
2019-03-24T19:56:43.607Z,11.13
2019-03-24T19:59:13.586Z,11.23
2019-03-24T20:01:43.727Z,11.41
2019-03-24T20:04:13.954Z,11.37
2019-03-24T20:06:44.091Z,11.39
2019-03-24T20:09:14.716Z,11.40
2019-03-24T20:11:44.661Z,11.39
2019-03-24T20:14:14.859Z,11.36
2019-03-24T20:16:45.106Z,11.21
2019-03-24T20:19:15.096Z,11.23
2019-03-24T20:21:45.145Z,11.23
2019-03-24T20:24:15.128Z,11.22
2019-03-24T20:26:45.066Z,11.24
2019-03-24T20:29:14.997Z,11.23
2019-03-24T20:31:45.323Z,11.15
2019-03-24T20:34:15.417Z,11.10
2019-03-24T20:36:45.358Z,11.14
2019-03-24T20:39:15.426Z,11.08
2019-03-24T20:41:45.428Z,11.02
2019-03-24T20:44:15.416Z,11.08
2019-03-24T20:46:45.559Z,11.13
2019-03-24T20:49:15.668Z,10.99
2019-03-24T20:51:45.685Z,11.02
2019-03-24T20:54:15.863Z,11.00
2019-03-24T20:56:45.840Z,10.89
2019-03-24T20:59:15.847Z,10.73
2019-03-24T21:01:46.029Z,10.68
2019-03-24T21:04:16.054Z,10.72
2019-03-24T21:06:46.276Z,10.70
2019-03-24T21:09:16.287Z,10.63
2019-03-24T21:11:46.328Z,10.63
2019-03-24T21:14:16.275Z,10.78
2019-03-24T21:16:46.620Z,10.66
2019-03-24T21:19:16.669Z,10.67
2019-03-24T21:21:46.612Z,10.76
2019-03-24T21:24:16.738Z,10.70
2019-03-24T21:26:46.823Z,10.54
2019-03-24T21:29:16.863Z,10.54
2019-03-24T21:31:47.029Z,10.54
2019-03-24T21:34:17.090Z,10.67
2019-03-24T21:36:47.192Z,10.55
2019-03-24T21:39:17.216Z,10.43
2019-03-24T21:41:47.402Z,10.33
2019-03-24T21:44:17.382Z,10.58
2019-03-24T21:46:47.483Z,10.56
2019-03-24T21:49:17.670Z,10.59
2019-03-24T21:51:47.768Z,10.46
2019-03-24T21:54:17.732Z,10.47
2019-03-24T21:56:47.788Z,10.63
2019-03-24T21:59:17.930Z,10.47
2019-03-24T22:01:47.909Z,10.35
2019-03-24T22:04:17.946Z,10.35
2019-03-24T22:06:48.129Z,10.46
2019-03-24T22:09:18.197Z,10.20
2019-03-24T22:11:48.255Z,10.20
2019-03-24T22:14:18.467Z,10.21
2019-03-24T22:16:48.601Z,10.22
2019-03-24T22:19:18.558Z,10.48
2019-03-24T22:21:48.665Z,10.35
2019-03-24T22:24:18.658Z,10.65
2019-03-24T22:26:48.687Z,10.69
2019-03-24T22:29:18.715Z,10.54
2019-03-24T22:31:48.792Z,10.47
2019-03-24T22:34:18.956Z,10.47
2019-03-24T22:36:49.160Z,10.47
2019-03-24T22:39:19.363Z,10.44
2019-03-24T22:41:49.425Z,10.52
2019-03-24T22:44:19.488Z,10.32
2019-03-24T22:46:49.950Z,10.29
2019-03-24T22:49:19.963Z,10.32
2019-03-24T22:51:49.997Z,10.05
2019-03-24T22:54:19.919Z,10.05
2019-03-24T22:56:50.055Z,10.20
2019-03-24T22:59:20.039Z,9.89
2019-03-24T23:01:50.189Z,9.95
2019-03-24T23:04:20.162Z,9.95
2019-03-24T23:06:50.137Z,10.08
2019-03-24T23:09:20.297Z,10.01
2019-03-24T23:11:50.236Z,10.04
2019-03-24T23:14:20.273Z,9.96
2019-03-24T23:16:50.190Z,10.01
2019-03-24T23:19:20.259Z,9.83
2019-03-24T23:21:50.393Z,9.86
2019-03-24T23:24:20.416Z,9.86
2019-03-24T23:26:50.454Z,9.86
2019-03-24T23:29:20.442Z,10.09
2019-03-24T23:31:50.408Z,10.07
2019-03-24T23:34:20.565Z,10.07
2019-03-24T23:36:50.480Z,10.16
2019-03-24T23:39:20.620Z,10.17
2019-03-24T23:41:50.823Z,10.21
2019-03-24T23:44:20.752Z,9.91
2019-03-24T23:46:50.878Z,9.59
2019-03-24T23:49:21.476Z,9.59
2019-03-24T23:51:51.503Z,9.67
2019-03-24T23:54:26.866Z,9.87
2019-03-24T23:56:53.116Z,9.85
2019-03-24T23:59:23.026Z,9.72
